sensor_id;sensor_type;location;lat;lon;timestamp;P1;durP1;ratioP1;P2;durP2;ratioP2
33162;SDS011;29282;45.656;11.302;2023-07-31T00:00:27;2.45;;;2.25;;
33162;SDS011;29282;45.656;11.302;2023-07-31T00:02:53;2.67;;;2.47;;
33162;SDS011;29282;45.656;11.302;2023-07-31T00:05:19;3.85;;;2.40;;
33162;SDS011;29282;45.656;11.302;2023-07-31T00:07:45;3.38;;;2.63;;
33162;SDS011;29282;45.656;11.302;2023-07-31T00:10:10;2.42;;;2.20;;
33162;SDS011;29282;45.656;11.302;2023-07-31T00:12:37;3.33;;;2.70;;
33162;SDS011;29282;45.656;11.302;2023-07-31T00:15:03;2.83;;;2.63;;
33162;SDS011;29282;45.656;11.302;2023-07-31T00:17:29;3.45;;;2.60;;
33162;SDS011;29282;45.656;11.302;2023-07-31T00:19:55;3.08;;;2.78;;
33162;SDS011;29282;45.656;11.302;2023-07-31T00:22:20;3.67;;;2.33;;
33162;SDS011;29282;45.656;11.302;2023-07-31T00:24:46;4.15;;;2.70;;
33162;SDS011;29282;45.656;11.302;2023-07-31T00:27:12;2.50;;;2.30;;
33162;SDS011;29282;45.656;11.302;2023-07-31T00:29:37;3.45;;;2.58;;
33162;SDS011;29282;45.656;11.302;2023-07-31T00:32:05;2.58;;;2.38;;
33162;SDS011;29282;45.656;11.302;2023-07-31T00:34:31;3.25;;;2.35;;
33162;SDS011;29282;45.656;11.302;2023-07-31T00:36:57;2.33;;;2.13;;
33162;SDS011;29282;45.656;11.302;2023-07-31T00:39:22;2.72;;;2.53;;
33162;SDS011;29282;45.656;11.302;2023-07-31T00:41:48;2.63;;;2.25;;
33162;SDS011;29282;45.656;11.302;2023-07-31T00:44:13;2.70;;;2.40;;
33162;SDS011;29282;45.656;11.302;2023-07-31T00:46:39;3.70;;;2.42;;
33162;SDS011;29282;45.656;11.302;2023-07-31T00:49:05;2.97;;;2.28;;
33162;SDS011;29282;45.656;11.302;2023-07-31T00:51:31;2.70;;;2.50;;
33162;SDS011;29282;45.656;11.302;2023-07-31T00:53:56;2.50;;;2.30;;
33162;SDS011;29282;45.656;11.302;2023-07-31T00:56:23;2.72;;;2.40;;
33162;SDS011;29282;45.656;11.302;2023-07-31T00:58:49;2.63;;;2.42;;
33162;SDS011;29282;45.656;11.302;2023-07-31T01:01:15;2.42;;;2.22;;
33162;SDS011;29282;45.656;11.302;2023-07-31T01:03:40;2.50;;;2.30;;
33162;SDS011;29282;45.656;11.302;2023-07-31T01:06:14;2.60;;;2.40;;
33162;SDS011;29282;45.656;11.302;2023-07-31T01:11:19;3.78;;;2.30;;
33162;SDS011;29282;45.656;11.302;2023-07-31T01:13:50;3.65;;;2.45;;
33162;SDS011;29282;45.656;11.302;2023-07-31T01:16:16;2.42;;;2.17;;
33162;SDS011;29282;45.656;11.302;2023-07-31T01:18:42;3.88;;;2.40;;
33162;SDS011;29282;45.656;11.302;2023-07-31T01:31:40;2.45;;;2.13;;
33162;SDS011;29282;45.656;11.302;2023-07-31T01:34:09;3.30;;;2.25;;
33162;SDS011;29282;45.656;11.302;2023-07-31T01:36:36;3.92;;;2.58;;
33162;SDS011;29282;45.656;11.302;2023-07-31T01:39:02;2.58;;;2.33;;
33162;SDS011;29282;45.656;11.302;2023-07-31T01:41:28;2.83;;;2.45;;
33162;SDS011;29282;45.656;11.302;2023-07-31T01:43:54;2.47;;;2.28;;
33162;SDS011;29282;45.656;11.302;2023-07-31T01:46:19;2.30;;;2.10;;
33162;SDS011;29282;45.656;11.302;2023-07-31T01:48:48;2.50;;;2.30;;
33162;SDS011;29282;45.656;11.302;2023-07-31T01:51:13;2.35;;;2.15;;
33162;SDS011;29282;45.656;11.302;2023-07-31T01:53:39;2.40;;;2.20;;
33162;SDS011;29282;45.656;11.302;2023-07-31T01:56:04;2.83;;;2.40;;
33162;SDS011;29282;45.656;11.302;2023-07-31T01:58:30;2.78;;;2.58;;
33162;SDS011;29282;45.656;11.302;2023-07-31T02:00:55;2.42;;;2.22;;
33162;SDS011;29282;45.656;11.302;2023-07-31T02:03:21;4.47;;;2.47;;
33162;SDS011;29282;45.656;11.302;2023-07-31T02:05:47;2.95;;;2.40;;
33162;SDS011;29282;45.656;11.302;2023-07-31T02:08:13;2.85;;;2.25;;
33162;SDS011;29282;45.656;11.302;2023-07-31T02:10:39;2.60;;;2.40;;
33162;SDS011;29282;45.656;11.302;2023-07-31T02:13:05;2.20;;;2.00;;
33162;SDS011;29282;45.656;11.302;2023-07-31T02:15:31;2.28;;;2.08;;
33162;SDS011;29282;45.656;11.302;2023-07-31T02:17:56;2.28;;;2.05;;
33162;SDS011;29282;45.656;11.302;2023-07-31T02:20:22;2.47;;;2.28;;
33162;SDS011;29282;45.656;11.302;2023-07-31T02:22:48;3.38;;;2.40;;
33162;SDS011;29282;45.656;11.302;2023-07-31T02:25:13;2.42;;;2.17;;
33162;SDS011;29282;45.656;11.302;2023-07-31T02:27:39;2.35;;;2.10;;
33162;SDS011;29282;45.656;11.302;2023-07-31T02:30:05;2.42;;;2.17;;
33162;SDS011;29282;45.656;11.302;2023-07-31T02:32:31;2.38;;;2.17;;
33162;SDS011;29282;45.656;11.302;2023-07-31T02:34:56;2.50;;;2.30;;
33162;SDS011;29282;45.656;11.302;2023-07-31T02:37:22;2.60;;;2.22;;
33162;SDS011;29282;45.656;11.302;2023-07-31T02:39:48;2.38;;;2.17;;
33162;SDS011;29282;45.656;11.302;2023-07-31T02:42:14;3.25;;;2.00;;
33162;SDS011;29282;45.656;11.302;2023-07-31T02:44:39;2.33;;;2.13;;
33162;SDS011;29282;45.656;11.302;2023-07-31T02:47:05;2.28;;;1.92;;
33162;SDS011;29282;45.656;11.302;2023-07-31T02:49:31;2.40;;;2.20;;
33162;SDS011;29282;45.656;11.302;2023-07-31T02:51:56;2.30;;;1.98;;
33162;SDS011;29282;45.656;11.302;2023-07-31T02:54:22;2.20;;;2.00;;
33162;SDS011;29282;45.656;11.302;2023-07-31T02:56:47;2.40;;;2.20;;
33162;SDS011;29282;45.656;11.302;2023-07-31T02:59:13;2.60;;;2.40;;
33162;SDS011;29282;45.656;11.302;2023-07-31T03:01:39;2.40;;;2.20;;
33162;SDS011;29282;45.656;11.302;2023-07-31T03:04:04;2.13;;;2.03;;
33162;SDS011;29282;45.656;11.302;2023-07-31T03:06:30;3.85;;;2.30;;
33162;SDS011;29282;45.656;11.302;2023-07-31T03:08:55;2.30;;;2.10;;
33162;SDS011;29282;45.656;11.302;2023-07-31T03:11:21;2.22;;;2.03;;
33162;SDS011;29282;45.656;11.302;2023-07-31T03:13:46;2.42;;;2.22;;
33162;SDS011;29282;45.656;11.302;2023-07-31T03:16:12;2.30;;;2.10;;
33162;SDS011;29282;45.656;11.302;2023-07-31T03:18:37;2.33;;;2.03;;
33162;SDS011;29282;45.656;11.302;2023-07-31T03:21:04;2.88;;;2.00;;
33162;SDS011;29282;45.656;11.302;2023-07-31T03:23:30;2.25;;;2.05;;
33162;SDS011;29282;45.656;11.302;2023-07-31T03:25:59;2.85;;;2.20;;
33162;SDS011;29282;45.656;11.302;2023-07-31T03:28:26;2.50;;;1.98;;
33162;SDS011;29282;45.656;11.302;2023-07-31T03:30:52;3.65;;;2.30;;
33162;SDS011;29282;45.656;11.302;2023-07-31T03:33:18;2.13;;;1.92;;
33162;SDS011;29282;45.656;11.302;2023-07-31T03:35:44;2.33;;;2.13;;
33162;SDS011;29282;45.656;11.302;2023-07-31T03:38:09;2.47;;;2.10;;
33162;SDS011;29282;45.656;11.302;2023-07-31T03:40:35;2.28;;;2.08;;
33162;SDS011;29282;45.656;11.302;2023-07-31T03:43:01;2.47;;;2.28;;
33162;SDS011;29282;45.656;11.302;2023-07-31T03:45:26;2.17;;;1.95;;
33162;SDS011;29282;45.656;11.302;2023-07-31T03:47:52;2.08;;;1.90;;
33162;SDS011;29282;45.656;11.302;2023-07-31T03:50:18;2.30;;;2.10;;
33162;SDS011;29282;45.656;11.302;2023-07-31T03:55:19;2.75;;;2.40;;
33162;SDS011;29282;45.656;11.302;2023-07-31T03:57:45;2.30;;;2.10;;
33162;SDS011;29282;45.656;11.302;2023-07-31T04:00:10;3.38;;;2.30;;
33162;SDS011;29282;45.656;11.302;2023-07-31T04:02:36;2.47;;;2.00;;
33162;SDS011;29282;45.656;11.302;2023-07-31T04:05:02;2.17;;;1.98;;
33162;SDS011;29282;45.656;11.302;2023-07-31T04:07:27;2.80;;;2.00;;
33162;SDS011;29282;45.656;11.302;2023-07-31T04:09:53;2.30;;;2.10;;
33162;SDS011;29282;45.656;11.302;2023-07-31T04:12:18;2.10;;;2.00;;
33162;SDS011;29282;45.656;11.302;2023-07-31T04:14:44;2.10;;;1.90;;
33162;SDS011;29282;45.656;11.302;2023-07-31T04:17:09;2.50;;;1.90;;
33162;SDS011;29282;45.656;11.302;2023-07-31T04:19:35;2.30;;;2.10;;
33162;SDS011;29282;45.656;11.302;2023-07-31T04:22:00;2.50;;;1.67;;
33162;SDS011;29282;45.656;11.302;2023-07-31T04:24:25;2.30;;;2.10;;
33162;SDS011;29282;45.656;11.302;2023-07-31T04:26:51;2.30;;;2.10;;
33162;SDS011;29282;45.656;11.302;2023-07-31T04:29:17;2.20;;;2.00;;
33162;SDS011;29282;45.656;11.302;2023-07-31T04:31:43;2.47;;;2.08;;
33162;SDS011;29282;45.656;11.302;2023-07-31T04:34:09;2.20;;;2.00;;
33162;SDS011;29282;45.656;11.302;2023-07-31T04:36:34;2.30;;;2.10;;
33162;SDS011;29282;45.656;11.302;2023-07-31T04:39:00;2.10;;;1.90;;
33162;SDS011;29282;45.656;11.302;2023-07-31T04:41:26;2.38;;;2.15;;
33162;SDS011;29282;45.656;11.302;2023-07-31T04:43:52;2.30;;;2.10;;
33162;SDS011;29282;45.656;11.302;2023-07-31T04:46:17;1.90;;;1.80;;
33162;SDS011;29282;45.656;11.302;2023-07-31T04:48:43;2.40;;;2.20;;
33162;SDS011;29282;45.656;11.302;2023-07-31T04:51:08;2.38;;;2.17;;
33162;SDS011;29282;45.656;11.302;2023-07-31T04:53:37;2.10;;;1.90;;
33162;SDS011;29282;45.656;11.302;2023-07-31T04:56:02;2.28;;;2.08;;
33162;SDS011;29282;45.656;11.302;2023-07-31T04:58:28;2.35;;;2.10;;
33162;SDS011;29282;45.656;11.302;2023-07-31T05:00:54;1.85;;;1.75;;
33162;SDS011;29282;45.656;11.302;2023-07-31T05:03:19;2.20;;;2.00;;
33162;SDS011;29282;45.656;11.302;2023-07-31T05:05:45;2.35;;;2.15;;
33162;SDS011;29282;45.656;11.302;2023-07-31T05:08:10;2.03;;;1.90;;
33162;SDS011;29282;45.656;11.302;2023-07-31T05:10:36;1.92;;;1.83;;
33162;SDS011;29282;45.656;11.302;2023-07-31T05:13:01;2.10;;;1.90;;
33162;SDS011;29282;45.656;11.302;2023-07-31T05:15:27;1.85;;;1.75;;
33162;SDS011;29282;45.656;11.302;2023-07-31T05:17:53;2.28;;;2.08;;
33162;SDS011;29282;45.656;11.302;2023-07-31T05:20:21;2.10;;;1.90;;
33162;SDS011;29282;45.656;11.302;2023-07-31T05:22:47;2.15;;;2.03;;
33162;SDS011;29282;45.656;11.302;2023-07-31T05:25:15;2.00;;;1.90;;
33162;SDS011;29282;45.656;11.302;2023-07-31T05:27:41;1.77;;;1.67;;
33162;SDS011;29282;45.656;11.302;2023-07-31T05:30:07;2.05;;;1.90;;
33162;SDS011;29282;45.656;11.302;2023-07-31T05:32:33;2.33;;;2.13;;
33162;SDS011;29282;45.656;11.302;2023-07-31T05:34:58;2.42;;;1.80;;
33162;SDS011;29282;45.656;11.302;2023-07-31T05:37:24;2.30;;;2.10;;
33162;SDS011;29282;45.656;11.302;2023-07-31T05:39:49;2.10;;;2.00;;
33162;SDS011;29282;45.656;11.302;2023-07-31T05:42:19;2.00;;;1.90;;
33162;SDS011;29282;45.656;11.302;2023-07-31T05:44:44;1.70;;;1.60;;
33162;SDS011;29282;45.656;11.302;2023-07-31T05:47:10;2.00;;;1.90;;
33162;SDS011;29282;45.656;11.302;2023-07-31T05:49:35;2.10;;;1.98;;
33162;SDS011;29282;45.656;11.302;2023-07-31T05:52:04;1.80;;;1.70;;
33162;SDS011;29282;45.656;11.302;2023-07-31T05:54:30;2.25;;;2.05;;
33162;SDS011;29282;45.656;11.302;2023-07-31T05:56:57;1.90;;;1.80;;
33162;SDS011;29282;45.656;11.302;2023-07-31T05:59:23;1.80;;;1.70;;
33162;SDS011;29282;45.656;11.302;2023-07-31T06:01:48;2.10;;;1.83;;
33162;SDS011;29282;45.656;11.302;2023-07-31T06:04:14;2.13;;;2.00;;
33162;SDS011;29282;45.656;11.302;2023-07-31T06:06:39;2.10;;;1.90;;
33162;SDS011;29282;45.656;11.302;2023-07-31T06:09:04;1.85;;;1.67;;
33162;SDS011;29282;45.656;11.302;2023-07-31T06:11:30;2.10;;;1.90;;
33162;SDS011;29282;45.656;11.302;2023-07-31T06:13:56;2.25;;;1.90;;
33162;SDS011;29282;45.656;11.302;2023-07-31T06:16:21;2.33;;;2.10;;
33162;SDS011;29282;45.656;11.302;2023-07-31T06:18:47;1.80;;;1.60;;
33162;SDS011;29282;45.656;11.302;2023-07-31T06:21:12;2.22;;;1.90;;
33162;SDS011;29282;45.656;11.302;2023-07-31T06:23:38;1.98;;;1.88;;
33162;SDS011;29282;45.656;11.302;2023-07-31T06:26:03;1.95;;;1.85;;
33162;SDS011;29282;45.656;11.302;2023-07-31T06:28:29;2.08;;;1.88;;
33162;SDS011;29282;45.656;11.302;2023-07-31T06:30:56;2.17;;;1.80;;
33162;SDS011;29282;45.656;11.302;2023-07-31T06:33:22;1.90;;;1.80;;
33162;SDS011;29282;45.656;11.302;2023-07-31T06:35:50;2.08;;;1.88;;
33162;SDS011;29282;45.656;11.302;2023-07-31T06:38:16;1.80;;;1.70;;
33162;SDS011;29282;45.656;11.302;2023-07-31T06:40:43;1.83;;;1.73;;
33162;SDS011;29282;45.656;11.302;2023-07-31T06:43:09;2.15;;;1.85;;
33162;SDS011;29282;45.656;11.302;2023-07-31T06:45:35;2.05;;;1.85;;
33162;SDS011;29282;45.656;11.302;2023-07-31T06:48:01;1.85;;;1.75;;
33162;SDS011;29282;45.656;11.302;2023-07-31T06:50:27;2.03;;;1.83;;
33162;SDS011;29282;45.656;11.302;2023-07-31T06:52:53;2.05;;;1.90;;
33162;SDS011;29282;45.656;11.302;2023-07-31T06:55:20;1.80;;;1.70;;
33162;SDS011;29282;45.656;11.302;2023-07-31T06:57:47;1.90;;;1.70;;
33162;SDS011;29282;45.656;11.302;2023-07-31T07:00:13;1.80;;;1.70;;
33162;SDS011;29282;45.656;11.302;2023-07-31T07:02:39;1.65;;;1.55;;
33162;SDS011;29282;45.656;11.302;2023-07-31T07:05:06;11.68;;;2.47;;
33162;SDS011;29282;45.656;11.302;2023-07-31T07:07:32;4.40;;;2.00;;
33162;SDS011;29282;45.656;11.302;2023-07-31T07:09:58;5.03;;;2.10;;
33162;SDS011;29282;45.656;11.302;2023-07-31T07:12:25;2.25;;;1.73;;
33162;SDS011;29282;45.656;11.302;2023-07-31T07:14:50;5.93;;;1.98;;
33162;SDS011;29282;45.656;11.302;2023-07-31T07:17:18;3.03;;;1.80;;
33162;SDS011;29282;45.656;11.302;2023-07-31T07:19:44;2.95;;;1.70;;
33162;SDS011;29282;45.656;11.302;2023-07-31T07:22:13;3.38;;;2.05;;
33162;SDS011;29282;45.656;11.302;2023-07-31T07:24:39;2.38;;;1.80;;
33162;SDS011;29282;45.656;11.302;2023-07-31T07:27:04;3.80;;;1.80;;
33162;SDS011;29282;45.656;11.302;2023-07-31T07:29:30;2.88;;;1.80;;
33162;SDS011;29282;45.656;11.302;2023-07-31T07:31:56;2.03;;;1.83;;
33162;SDS011;29282;45.656;11.302;2023-07-31T07:34:27;2.00;;;1.80;;
33162;SDS011;29282;45.656;11.302;2023-07-31T07:36:53;3.28;;;1.73;;
33162;SDS011;29282;45.656;11.302;2023-07-31T07:39:20;3.20;;;1.83;;
33162;SDS011;29282;45.656;11.302;2023-07-31T07:41:46;4.43;;;2.00;;
33162;SDS011;29282;45.656;11.302;2023-07-31T07:44:11;3.83;;;1.80;;
33162;SDS011;29282;45.656;11.302;2023-07-31T07:46:37;2.53;;;1.80;;
33162;SDS011;29282;45.656;11.302;2023-07-31T07:49:03;2.30;;;2.00;;
33162;SDS011;29282;45.656;11.302;2023-07-31T07:51:29;2.00;;;1.70;;
33162;SDS011;29282;45.656;11.302;2023-07-31T07:53:56;2.15;;;1.95;;
33162;SDS011;29282;45.656;11.302;2023-07-31T07:56:23;3.28;;;1.83;;
33162;SDS011;29282;45.656;11.302;2023-07-31T07:58:49;1.98;;;1.77;;
33162;SDS011;29282;45.656;11.302;2023-07-31T08:01:15;1.98;;;1.88;;
33162;SDS011;29282;45.656;11.302;2023-07-31T08:03:41;2.05;;;1.83;;
33162;SDS011;29282;45.656;11.302;2023-07-31T08:06:06;1.90;;;1.80;;
33162;SDS011;29282;45.656;11.302;2023-07-31T08:08:34;1.80;;;1.70;;
33162;SDS011;29282;45.656;11.302;2023-07-31T08:11:00;2.42;;;1.65;;
33162;SDS011;29282;45.656;11.302;2023-07-31T08:13:25;1.90;;;1.80;;
33162;SDS011;29282;45.656;11.302;2023-07-31T08:15:51;2.10;;;1.90;;
33162;SDS011;29282;45.656;11.302;2023-07-31T08:18:17;2.00;;;1.90;;
33162;SDS011;29282;45.656;11.302;2023-07-31T08:20:42;2.10;;;1.70;;
33162;SDS011;29282;45.656;11.302;2023-07-31T08:23:08;1.80;;;1.70;;
33162;SDS011;29282;45.656;11.302;2023-07-31T08:25:35;1.95;;;1.58;;
33162;SDS011;29282;45.656;11.302;2023-07-31T08:28:01;2.05;;;1.85;;
33162;SDS011;29282;45.656;11.302;2023-07-31T08:30:27;4.10;;;1.75;;
33162;SDS011;29282;45.656;11.302;2023-07-31T08:32:53;2.38;;;2.17;;
33162;SDS011;29282;45.656;11.302;2023-07-31T08:35:18;2.92;;;1.65;;
33162;SDS011;29282;45.656;11.302;2023-07-31T08:37:44;2.20;;;1.60;;
33162;SDS011;29282;45.656;11.302;2023-07-31T08:40:09;2.92;;;1.80;;
33162;SDS011;29282;45.656;11.302;2023-07-31T08:42:43;1.92;;;1.83;;
33162;SDS011;29282;45.656;11.302;2023-07-31T08:45:15;1.70;;;1.60;;
33162;SDS011;29282;45.656;11.302;2023-07-31T08:47:45;2.67;;;1.90;;
33162;SDS011;29282;45.656;11.302;2023-07-31T08:50:12;1.70;;;1.60;;
33162;SDS011;29282;45.656;11.302;2023-07-31T08:52:38;2.70;;;1.70;;
33162;SDS011;29282;45.656;11.302;2023-07-31T08:55:05;2.38;;;1.90;;
33162;SDS011;29282;45.656;11.302;2023-07-31T08:57:31;1.85;;;1.70;;
33162;SDS011;29282;45.656;11.302;2023-07-31T08:59:59;1.92;;;1.80;;
33162;SDS011;29282;45.656;11.302;2023-07-31T09:02:25;2.13;;;1.92;;
33162;SDS011;29282;45.656;11.302;2023-07-31T09:04:56;1.70;;;1.60;;
33162;SDS011;29282;45.656;11.302;2023-07-31T09:07:22;1.70;;;1.60;;
33162;SDS011;29282;45.656;11.302;2023-07-31T09:09:49;1.63;;;1.52;;
33162;SDS011;29282;45.656;11.302;2023-07-31T09:12:15;2.15;;;1.77;;
33162;SDS011;29282;45.656;11.302;2023-07-31T09:14:42;1.73;;;1.63;;
33162;SDS011;29282;45.656;11.302;2023-07-31T09:17:10;1.98;;;1.77;;
33162;SDS011;29282;45.656;11.302;2023-07-31T09:19:35;1.70;;;1.58;;
33162;SDS011;29282;45.656;11.302;2023-07-31T09:22:05;1.83;;;1.60;;
33162;SDS011;29282;45.656;11.302;2023-07-31T09:24:32;1.83;;;1.60;;
33162;SDS011;29282;45.656;11.302;2023-07-31T09:27:00;1.65;;;1.55;;
33162;SDS011;29282;45.656;11.302;2023-07-31T09:29:27;1.70;;;1.60;;
33162;SDS011;29282;45.656;11.302;2023-07-31T09:31:54;2.05;;;1.65;;
33162;SDS011;29282;45.656;11.302;2023-07-31T09:34:20;1.63;;;1.50;;
33162;SDS011;29282;45.656;11.302;2023-07-31T09:36:54;2.15;;;1.45;;
33162;SDS011;29282;45.656;11.302;2023-07-31T09:39:20;1.65;;;1.55;;
33162;SDS011;29282;45.656;11.302;2023-07-31T09:42:03;1.88;;;1.73;;
33162;SDS011;29282;45.656;11.302;2023-07-31T09:44:39;2.17;;;1.60;;
33162;SDS011;29282;45.656;11.302;2023-07-31T09:47:06;1.67;;;1.58;;
33162;SDS011;29282;45.656;11.302;2023-07-31T09:49:32;1.80;;;1.70;;
33162;SDS011;29282;45.656;11.302;2023-07-31T09:51:57;1.92;;;1.73;;
33162;SDS011;29282;45.656;11.302;2023-07-31T09:54:22;1.80;;;1.70;;
33162;SDS011;29282;45.656;11.302;2023-07-31T09:56:48;1.63;;;1.45;;
33162;SDS011;29282;45.656;11.302;2023-07-31T09:59:20;1.70;;;1.60;;
33162;SDS011;29282;45.656;11.302;2023-07-31T10:01:46;1.77;;;1.67;;
33162;SDS011;29282;45.656;11.302;2023-07-31T10:04:13;2.72;;;1.58;;
33162;SDS011;29282;45.656;11.302;2023-07-31T10:06:39;2.00;;;1.65;;
33162;SDS011;29282;45.656;11.302;2023-07-31T10:09:08;1.50;;;1.40;;
33162;SDS011;29282;45.656;11.302;2023-07-31T10:11:43;1.90;;;1.80;;
33162;SDS011;29282;45.656;11.302;2023-07-31T10:14:16;1.70;;;1.60;;
33162;SDS011;29282;45.656;11.302;2023-07-31T10:16:44;1.88;;;1.77;;
33162;SDS011;29282;45.656;11.302;2023-07-31T10:19:10;1.70;;;1.40;;
33162;SDS011;29282;45.656;11.302;2023-07-31T10:21:36;1.60;;;1.50;;
33162;SDS011;29282;45.656;11.302;2023-07-31T10:24:03;1.75;;;1.65;;
33162;SDS011;29282;45.656;11.302;2023-07-31T10:26:31;1.70;;;1.60;;
33162;SDS011;29282;45.656;11.302;2023-07-31T10:28:58;1.80;;;1.70;;
33162;SDS011;29282;45.656;11.302;2023-07-31T10:31:25;1.73;;;1.63;;
33162;SDS011;29282;45.656;11.302;2023-07-31T10:33:53;1.90;;;1.80;;
33162;SDS011;29282;45.656;11.302;2023-07-31T10:36:20;2.17;;;1.60;;
33162;SDS011;29282;45.656;11.302;2023-07-31T10:38:49;1.73;;;1.63;;
33162;SDS011;29282;45.656;11.302;2023-07-31T10:41:15;1.80;;;1.70;;
33162;SDS011;29282;45.656;11.302;2023-07-31T10:43:41;1.58;;;1.42;;
33162;SDS011;29282;45.656;11.302;2023-07-31T10:46:07;1.70;;;1.60;;
33162;SDS011;29282;45.656;11.302;2023-07-31T10:48:38;1.70;;;1.60;;
33162;SDS011;29282;45.656;11.302;2023-07-31T10:51:07;2.03;;;1.63;;
33162;SDS011;29282;45.656;11.302;2023-07-31T10:53:34;2.20;;;1.50;;
33162;SDS011;29282;45.656;11.302;2023-07-31T10:56:04;1.83;;;1.60;;
33162;SDS011;29282;45.656;11.302;2023-07-31T10:58:34;2.28;;;1.67;;
33162;SDS011;29282;45.656;11.302;2023-07-31T11:01:02;2.10;;;1.83;;
33162;SDS011;29282;45.656;11.302;2023-07-31T11:03:41;3.00;;;1.40;;
33162;SDS011;29282;45.656;11.302;2023-07-31T11:06:17;1.73;;;1.63;;
33162;SDS011;29282;45.656;11.302;2023-07-31T11:08:52;2.08;;;1.80;;
33162;SDS011;29282;45.656;11.302;2023-07-31T11:11:19;1.90;;;1.70;;
33162;SDS011;29282;45.656;11.302;2023-07-31T11:13:46;1.80;;;1.70;;
33162;SDS011;29282;45.656;11.302;2023-07-31T11:16:20;1.85;;;1.65;;
33162;SDS011;29282;45.656;11.302;2023-07-31T11:18:50;1.90;;;1.80;;
33162;SDS011;29282;45.656;11.302;2023-07-31T11:21:17;1.60;;;1.50;;
33162;SDS011;29282;45.656;11.302;2023-07-31T11:23:51;1.70;;;1.60;;
33162;SDS011;29282;45.656;11.302;2023-07-31T11:26:18;1.70;;;1.60;;
33162;SDS011;29282;45.656;11.302;2023-07-31T11:28:47;2.03;;;1.70;;
33162;SDS011;29282;45.656;11.302;2023-07-31T11:31:13;1.73;;;1.63;;
33162;SDS011;29282;45.656;11.302;2023-07-31T11:33:39;1.90;;;1.67;;
33162;SDS011;29282;45.656;11.302;2023-07-31T11:36:05;1.90;;;1.70;;
33162;SDS011;29282;45.656;11.302;2023-07-31T11:38:31;1.60;;;1.50;;
33162;SDS011;29282;45.656;11.302;2023-07-31T11:41:04;2.13;;;1.80;;
33162;SDS011;29282;45.656;11.302;2023-07-31T11:43:33;6.60;;;3.20;;
33162;SDS011;29282;45.656;11.302;2023-07-31T11:45:59;10.20;;;3.22;;
33162;SDS011;29282;45.656;11.302;2023-07-31T11:48:33;5.85;;;3.03;;
33162;SDS011;29282;45.656;11.302;2023-07-31T11:51:04;8.90;;;3.40;;
33162;SDS011;29282;45.656;11.302;2023-07-31T11:53:38;8.52;;;3.50;;
33162;SDS011;29282;45.656;11.302;2023-07-31T11:56:08;9.82;;;3.65;;
33162;SDS011;29282;45.656;11.302;2023-07-31T11:58:36;7.10;;;3.42;;
33162;SDS011;29282;45.656;11.302;2023-07-31T12:01:04;6.13;;;3.03;;
33162;SDS011;29282;45.656;11.302;2023-07-31T12:03:31;6.80;;;2.92;;
33162;SDS011;29282;45.656;11.302;2023-07-31T12:05:59;8.75;;;3.15;;
33162;SDS011;29282;45.656;11.302;2023-07-31T12:08:29;8.27;;;3.45;;
33162;SDS011;29282;45.656;11.302;2023-07-31T12:11:01;14.52;;;3.50;;
33162;SDS011;29282;45.656;11.302;2023-07-31T12:15:56;7.82;;;3.25;;
33162;SDS011;29282;45.656;11.302;2023-07-31T12:18:25;7.50;;;3.45;;
33162;SDS011;29282;45.656;11.302;2023-07-31T12:20:57;7.38;;;3.75;;
33162;SDS011;29282;45.656;11.302;2023-07-31T12:23:26;5.97;;;2.95;;
33162;SDS011;29282;45.656;11.302;2023-07-31T12:26:05;7.60;;;3.53;;
33162;SDS011;29282;45.656;11.302;2023-07-31T12:28:40;6.35;;;3.13;;
33162;SDS011;29282;45.656;11.302;2023-07-31T12:31:09;11.27;;;3.42;;
33162;SDS011;29282;45.656;11.302;2023-07-31T12:33:40;5.60;;;3.22;;
33162;SDS011;29282;45.656;11.302;2023-07-31T12:36:08;8.65;;;3.20;;
33162;SDS011;29282;45.656;11.302;2023-07-31T12:38:36;7.13;;;3.22;;
33162;SDS011;29282;45.656;11.302;2023-07-31T12:41:07;11.70;;;3.50;;
33162;SDS011;29282;45.656;11.302;2023-07-31T12:43:34;8.07;;;3.15;;
33162;SDS011;29282;45.656;11.302;2023-07-31T12:46:00;8.85;;;3.15;;
33162;SDS011;29282;45.656;11.302;2023-07-31T12:48:25;5.07;;;2.83;;
33162;SDS011;29282;45.656;11.302;2023-07-31T12:50:54;7.05;;;3.03;;
33162;SDS011;29282;45.656;11.302;2023-07-31T12:53:22;7.47;;;3.08;;
33162;SDS011;29282;45.656;11.302;2023-07-31T12:55:48;7.47;;;2.88;;
33162;SDS011;29282;45.656;11.302;2023-07-31T12:58:15;6.30;;;3.20;;
33162;SDS011;29282;45.656;11.302;2023-07-31T13:00:40;7.43;;;3.00;;
33162;SDS011;29282;45.656;11.302;2023-07-31T13:03:06;5.53;;;2.70;;
33162;SDS011;29282;45.656;11.302;2023-07-31T13:05:32;5.55;;;2.70;;
33162;SDS011;29282;45.656;11.302;2023-07-31T13:07:57;3.88;;;2.78;;
33162;SDS011;29282;45.656;11.302;2023-07-31T13:10:23;5.88;;;3.15;;
33162;SDS011;29282;45.656;11.302;2023-07-31T13:12:50;3.88;;;2.38;;
33162;SDS011;29282;45.656;11.302;2023-07-31T13:15:16;6.88;;;2.53;;
33162;SDS011;29282;45.656;11.302;2023-07-31T13:17:41;3.85;;;2.72;;
33162;SDS011;29282;45.656;11.302;2023-07-31T13:20:10;8.32;;;2.95;;
33162;SDS011;29282;45.656;11.302;2023-07-31T13:22:36;4.38;;;2.70;;
33162;SDS011;29282;45.656;11.302;2023-07-31T13:25:01;5.93;;;2.80;;
33162;SDS011;29282;45.656;11.302;2023-07-31T13:27:28;5.20;;;2.65;;
33162;SDS011;29282;45.656;11.302;2023-07-31T13:29:53;4.40;;;3.03;;
33162;SDS011;29282;45.656;11.302;2023-07-31T13:32:20;4.00;;;2.55;;
33162;SDS011;29282;45.656;11.302;2023-07-31T13:34:46;6.32;;;2.97;;
33162;SDS011;29282;45.656;11.302;2023-07-31T13:37:12;4.65;;;3.05;;
33162;SDS011;29282;45.656;11.302;2023-07-31T13:39:39;5.55;;;2.88;;
33162;SDS011;29282;45.656;11.302;2023-07-31T13:42:05;7.10;;;2.67;;
33162;SDS011;29282;45.656;11.302;2023-07-31T13:44:33;4.03;;;2.50;;
33162;SDS011;29282;45.656;11.302;2023-07-31T13:47:02;5.20;;;2.70;;
33162;SDS011;29282;45.656;11.302;2023-07-31T13:49:28;4.75;;;2.67;;
33162;SDS011;29282;45.656;11.302;2023-07-31T13:51:54;4.65;;;2.30;;
33162;SDS011;29282;45.656;11.302;2023-07-31T13:54:20;4.72;;;2.20;;
33162;SDS011;29282;45.656;11.302;2023-07-31T13:56:45;4.97;;;2.50;;
33162;SDS011;29282;45.656;11.302;2023-07-31T13:59:11;4.93;;;2.60;;
33162;SDS011;29282;45.656;11.302;2023-07-31T14:01:37;6.25;;;2.58;;
33162;SDS011;29282;45.656;11.302;2023-07-31T14:04:02;4.63;;;2.80;;
33162;SDS011;29282;45.656;11.302;2023-07-31T14:06:28;4.57;;;2.70;;
33162;SDS011;29282;45.656;11.302;2023-07-31T14:08:54;3.53;;;2.30;;
33162;SDS011;29282;45.656;11.302;2023-07-31T14:11:20;3.60;;;2.42;;
33162;SDS011;29282;45.656;11.302;2023-07-31T14:13:47;5.78;;;2.60;;
33162;SDS011;29282;45.656;11.302;2023-07-31T14:16:12;6.55;;;2.40;;
33162;SDS011;29282;45.656;11.302;2023-07-31T14:18:38;4.93;;;2.45;;
33162;SDS011;29282;45.656;11.302;2023-07-31T14:21:03;5.15;;;2.42;;
33162;SDS011;29282;45.656;11.302;2023-07-31T14:23:29;5.28;;;2.42;;
33162;SDS011;29282;45.656;11.302;2023-07-31T14:25:54;2.85;;;2.50;;
33162;SDS011;29282;45.656;11.302;2023-07-31T14:28:20;3.42;;;2.50;;
33162;SDS011;29282;45.656;11.302;2023-07-31T14:30:45;6.70;;;2.45;;
33162;SDS011;29282;45.656;11.302;2023-07-31T14:33:11;3.53;;;2.40;;
33162;SDS011;29282;45.656;11.302;2023-07-31T14:35:36;3.88;;;2.50;;
33162;SDS011;29282;45.656;11.302;2023-07-31T14:38:02;3.90;;;2.30;;
33162;SDS011;29282;45.656;11.302;2023-07-31T14:40:30;5.28;;;2.30;;
33162;SDS011;29282;45.656;11.302;2023-07-31T14:42:55;2.53;;;2.30;;
33162;SDS011;29282;45.656;11.302;2023-07-31T14:45:21;5.30;;;2.80;;
33162;SDS011;29282;45.656;11.302;2023-07-31T14:47:46;3.85;;;2.50;;